createdAt,value
2022-11-12T00:02:40.557Z,98667.03
2022-11-12T00:05:29.353Z,98660.09
2022-11-12T00:08:16.047Z,98666.16
2022-11-12T00:11:02.938Z,98662.75
2022-11-12T00:13:49.919Z,98660.09
2022-11-12T00:16:37.132Z,98664.44
2022-11-12T00:19:23.983Z,98660.13
2022-11-12T00:22:11.769Z,98652.41
2022-11-12T00:24:58.440Z,98659.28
2022-11-12T00:27:45.116Z,98656.69
2022-11-12T00:30:31.874Z,98656.69
2022-11-12T00:37:54.889Z,98671.28
2022-11-12T00:40:42.248Z,98661.78
2022-11-12T00:43:29.131Z,98661.81
2022-11-12T00:46:15.848Z,98662.72
2022-11-12T00:49:02.123Z,98673.03
2022-11-12T00:51:48.901Z,98670.44
2022-11-12T00:54:36.683Z,98670.44
2022-11-12T00:57:23.043Z,98665.28
2022-11-12T01:00:16.602Z,98671.31
2022-11-12T01:03:03.155Z,98668.72
2022-11-12T01:05:49.562Z,98675.63
2022-11-12T01:08:36.906Z,98677.34
2022-11-12T01:11:27.355Z,98677.34
2022-11-12T01:14:15.085Z,98679.09
2022-11-12T01:17:01.410Z,98673.09
2022-11-12T01:19:48.083Z,98677.38
2022-11-12T01:22:34.853Z,98670.44
2022-11-12T01:25:21.714Z,98675.59
2022-11-12T01:28:09.460Z,98665.28
2022-11-12T01:30:56.081Z,98661.00
2022-11-12T01:33:43.785Z,98663.59
2022-11-12T01:36:34.672Z,98668.75
2022-11-12T01:39:21.208Z,98670.47
2022-11-12T01:42:08.215Z,98671.34
2022-11-12T01:44:56.535Z,98671.38
2022-11-12T01:47:45.132Z,98667.94
2022-11-12T01:50:35.054Z,98667.09
2022-11-12T01:53:24.016Z,98671.41
2022-11-12T01:56:11.589Z,98672.28
2022-11-12T01:59:03.778Z,98679.19
2022-11-12T02:01:53.471Z,98671.38
2022-11-12T02:04:43.102Z,98674.00
2022-11-12T02:07:31.997Z,98676.59
2022-11-12T02:10:19.239Z,98676.56
2022-11-12T02:13:24.915Z,98667.97
2022-11-12T02:16:13.174Z,98674.03
2022-11-12T02:19:01.753Z,98679.22
2022-11-12T02:21:50.532Z,98678.34
2022-11-12T02:24:38.106Z,98674.03
2022-11-12T02:27:25.392Z,98677.47
2022-11-12T02:30:13.152Z,98676.66
2022-11-12T02:32:59.735Z,98661.97
2022-11-12T02:35:46.201Z,98671.47
2022-11-12T02:38:34.890Z,98664.56
2022-11-12T02:41:21.675Z,98674.03
2022-11-12T02:44:08.139Z,98664.56
2022-11-12T02:46:54.686Z,98670.56
2022-11-12T02:49:41.200Z,98665.41
2022-11-12T02:52:27.669Z,98662.78
2022-11-12T02:55:15.784Z,98658.50
2022-11-12T02:58:02.431Z,98668.84
2022-11-12T03:00:49.881Z,98661.09
2022-11-12T03:03:37.206Z,98658.50
2022-11-12T03:06:23.787Z,98654.19
2022-11-12T03:09:12.440Z,98657.63
2022-11-12T03:12:00.739Z,98662.81
2022-11-12T03:14:47.379Z,98661.09
2022-11-12T03:17:36.181Z,98653.31
2022-11-12T03:20:22.961Z,98659.38
2022-11-12T03:23:11.505Z,98662.84
2022-11-12T03:25:58.140Z,98661.97
2022-11-12T03:28:46.243Z,98659.38
2022-11-12T03:31:32.809Z,98661.97
2022-11-12T03:34:19.448Z,98661.97
2022-11-12T03:37:09.484Z,98656.75
2022-11-12T03:39:56.348Z,98654.16
2022-11-12T03:42:47.689Z,98661.94
2022-11-12T03:45:35.962Z,98665.38
2022-11-12T03:48:22.534Z,98663.66
2022-11-12T03:51:09.945Z,98661.06
2022-11-12T03:53:56.678Z,98659.34
2022-11-12T03:56:43.259Z,98664.56
2022-11-12T03:59:29.898Z,98663.63
2022-11-12T04:02:17.828Z,98661.03
2022-11-12T04:05:22.576Z,98653.25
2022-11-12T04:08:31.603Z,98648.03
2022-11-12T04:11:18.671Z,98658.44
2022-11-12T04:14:05.417Z,98660.88
2022-11-12T04:17:09.631Z,98659.22
2022-11-12T04:20:15.247Z,98663.47
2022-11-12T04:23:01.843Z,98659.22
2022-11-12T04:26:05.775Z,98667.84
2022-11-12T04:29:10.090Z,98660.06
2022-11-12T04:31:56.583Z,98662.66
2022-11-12T04:34:43.370Z,98656.63
2022-11-12T04:37:44.595Z,98665.28
2022-11-12T04:40:48.914Z,98656.66
2022-11-12T04:43:53.282Z,98654.88
2022-11-12T04:46:39.968Z,98653.94
2022-11-12T04:49:26.738Z,98661.84
2022-11-12T04:52:13.165Z,98656.59
2022-11-12T04:55:01.490Z,98651.47
2022-11-12T04:57:48.322Z,98658.38
2022-11-12T05:00:35.218Z,98660.09
2022-11-12T05:03:22.029Z,98653.22
2022-11-12T05:06:29.945Z,98661.84
2022-11-12T05:09:16.561Z,98653.22
2022-11-12T05:12:05.360Z,98652.34
2022-11-12T05:14:51.786Z,98655.72
2022-11-12T05:17:38.422Z,98656.63
2022-11-12T05:20:24.911Z,98662.59
2022-11-12T05:23:11.523Z,98658.34
2022-11-12T05:25:58.284Z,98645.38
2022-11-12T05:28:46.829Z,98654.84
2022-11-12T05:31:33.866Z,98657.41
2022-11-12T05:34:23.088Z,98657.44
2022-11-12T05:37:12.435Z,98666.94
2022-11-12T05:39:59.080Z,98662.56
2022-11-12T05:42:46.196Z,98663.44
2022-11-12T05:45:34.661Z,98667.81
2022-11-12T05:48:24.425Z,98666.09
2022-11-12T05:51:14.181Z,98673.88
2022-11-12T05:54:01.394Z,98679.94
2022-11-12T05:56:48.477Z,98684.25
2022-11-12T05:59:35.117Z,98688.56
2022-11-12T06:02:23.333Z,98685.09
2022-11-12T06:05:10.304Z,98695.38
2022-11-12T06:07:57.317Z,98688.50
2022-11-12T06:10:44.348Z,98685.91
2022-11-12T06:13:30.840Z,98682.47
2022-11-12T06:16:17.637Z,98697.16
2022-11-12T06:19:06.206Z,98701.50
2022-11-12T06:21:52.700Z,98704.94
2022-11-12T06:24:39.321Z,98701.56
2022-11-12T06:27:25.839Z,98704.13
2022-11-12T06:30:13.947Z,98705.00
2022-11-12T06:33:00.955Z,98705.00
2022-11-12T06:35:58.033Z,98704.91
2022-11-12T06:38:45.379Z,98717.75
2022-11-12T06:41:32.174Z,98713.53
2022-11-12T06:44:22.130Z,98711.84
2022-11-12T06:47:10.718Z,98715.38
2022-11-12T06:49:57.135Z,98704.19
2022-11-12T06:52:45.313Z,98716.34
2022-11-12T06:55:32.273Z,98711.28
2022-11-12T06:58:18.880Z,98697.13
2022-11-12T07:01:12.074Z,98699.84
2022-11-12T07:03:59.727Z,98688.03
2022-11-12T07:06:47.680Z,98697.97
2022-11-12T07:09:36.206Z,98700.88
2022-11-12T07:12:22.667Z,98703.81
2022-11-12T07:15:10.338Z,98708.59
2022-11-12T07:17:56.945Z,98704.25
2022-11-12T07:20:43.913Z,98703.84
2022-11-12T07:23:32.691Z,98701.25
2022-11-12T07:26:23.146Z,98683.06
2022-11-12T07:29:10.439Z,98673.44
2022-11-12T07:31:57.405Z,98674.47
2022-11-12T07:34:44.007Z,98666.63
2022-11-12T07:37:31.115Z,98670.09
2022-11-12T07:40:18.039Z,98673.00
2022-11-12T07:43:06.631Z,98668.94
2022-11-12T07:45:54.258Z,98663.44
2022-11-12T07:48:41.805Z,98653.06
2022-11-12T07:51:29.988Z,98657.25
2022-11-12T07:54:16.659Z,98653.56
2022-11-12T07:57:03.309Z,98654.94
2022-11-12T07:59:51.635Z,98650.69
2022-11-12T08:02:38.024Z,98652.81
2022-11-12T08:05:24.804Z,98662.78
2022-11-12T08:08:11.659Z,98664.09
2022-11-12T08:11:00.204Z,98657.31
2022-11-12T08:13:46.931Z,98664.03
2022-11-12T08:16:35.447Z,98655.16
2022-11-12T08:19:21.776Z,98651.63
2022-11-12T08:22:08.632Z,98655.16
2022-11-12T08:24:55.436Z,98655.97
2022-11-12T08:27:42.206Z,98664.94
2022-11-12T08:30:29.360Z,98663.81
2022-11-12T08:33:18.233Z,98654.72
2022-11-12T08:36:05.831Z,98658.06
2022-11-12T08:38:53.697Z,98649.94
2022-11-12T08:41:39.925Z,98654.19
2022-11-12T08:44:26.896Z,98662.09
2022-11-12T08:47:13.454Z,98655.75
2022-11-12T08:50:01.258Z,98650.88
2022-11-12T08:52:47.958Z,98652.59
2022-11-12T08:55:35.892Z,98659.94
2022-11-12T08:58:22.678Z,98663.00
2022-11-12T09:01:10.144Z,98664.84
2022-11-12T09:03:57.003Z,98655.84
2022-11-12T09:06:48.723Z,98661.91
2022-11-12T09:09:39.497Z,98658.41
2022-11-12T09:12:26.097Z,98666.78
2022-11-12T09:18:20.152Z,98668.13
2022-11-12T09:21:08.878Z,98669.56
2022-11-12T09:23:57.000Z,98664.03
2022-11-12T09:26:43.284Z,98663.09
2022-11-12T09:29:29.663Z,98669.59
2022-11-12T09:32:16.477Z,98673.72
2022-11-12T09:35:03.644Z,98669.06
2022-11-12T09:37:50.106Z,98663.88
2022-11-12T09:40:56.956Z,98665.53
2022-11-12T09:43:48.904Z,98669.69
2022-11-12T09:46:42.880Z,98667.06
2022-11-12T09:49:33.915Z,98660.94
2022-11-12T09:52:26.026Z,98672.94
2022-11-12T09:55:20.718Z,98682.28
2022-11-12T09:58:13.563Z,98678.34
2022-11-12T10:01:04.530Z,98677.06
2022-11-12T10:03:59.930Z,98672.59
2022-11-12T10:06:53.016Z,98670.84
2022-11-12T10:09:46.605Z,98672.81
2022-11-12T10:12:43.444Z,98673.44
2022-11-12T10:16:08.855Z,98677.25
2022-11-12T10:19:08.945Z,98674.59
2022-11-12T10:22:04.665Z,98672.47
2022-11-12T10:24:51.828Z,98669.88
2022-11-12T10:27:41.895Z,98666.13
2022-11-12T10:30:28.480Z,98661.25
2022-11-12T10:33:17.002Z,98669.66
2022-11-12T10:36:25.782Z,98663.47
2022-11-12T10:39:32.477Z,98658.09
2022-11-12T10:42:20.902Z,98661.28
2022-11-12T10:45:21.276Z,98648.41
2022-11-12T10:48:27.520Z,98655.47
2022-11-12T10:51:26.853Z,98651.97
2022-11-12T10:54:36.095Z,98650.75
2022-11-12T10:57:25.070Z,98648.53
2022-11-12T11:00:20.586Z,98655.44
2022-11-12T11:03:17.667Z,98654.97
2022-11-12T11:06:08.075Z,98649.53
2022-11-12T11:09:09.345Z,98657.28
2022-11-12T11:11:56.070Z,98645.56
2022-11-12T11:14:44.575Z,98656.16
2022-11-12T11:17:31.594Z,98652.56
2022-11-12T11:20:24.130Z,98649.59
2022-11-12T11:23:20.464Z,98645.25
2022-11-12T11:26:20.906Z,98646.34
2022-11-12T11:29:21.900Z,98652.72
2022-11-12T11:32:18.383Z,98657.22
2022-11-12T11:35:15.320Z,98648.47
2022-11-12T11:38:30.690Z,98652.56
2022-11-12T11:41:44.961Z,98655.28
2022-11-12T11:44:39.899Z,98650.34
2022-11-12T11:47:59.433Z,98654.13
2022-11-12T11:51:00.138Z,98662.81
2022-11-12T11:53:58.194Z,98652.31
2022-11-12T11:56:50.055Z,98657.16
2022-11-12T11:59:51.878Z,98642.81
2022-11-12T12:03:17.925Z,98647.88
2022-11-12T12:06:21.297Z,98636.91
2022-11-12T12:09:22.909Z,98628.69
2022-11-12T12:12:23.846Z,98634.13
2022-11-12T12:15:39.735Z,98628.63
2022-11-12T12:18:40.473Z,98630.59
2022-11-12T12:21:32.143Z,98632.31
2022-11-12T12:24:25.006Z,98630.13
2022-11-12T12:27:16.909Z,98628.75
2022-11-12T12:30:05.425Z,98634.66
2022-11-12T12:32:58.020Z,98633.56
2022-11-12T12:35:53.942Z,98633.59
2022-11-12T12:38:47.258Z,98622.44
2022-11-12T12:41:41.663Z,98623.44
2022-11-12T12:44:48.807Z,98610.97
2022-11-12T12:47:38.363Z,98611.88
2022-11-12T12:50:27.593Z,98613.97
2022-11-12T12:53:19.987Z,98618.25
2022-11-12T12:56:07.539Z,98613.53
2022-11-12T12:58:55.240Z,98605.09
2022-11-12T13:01:44.152Z,98606.03
2022-11-12T13:04:56.217Z,98609.38
2022-11-12T13:07:46.170Z,98616.06
2022-11-12T13:10:53.911Z,98606.50
2022-11-12T13:13:41.068Z,98608.47
2022-11-12T13:16:59.497Z,98621.97
2022-11-12T13:19:47.980Z,98616.03
2022-11-12T13:22:49.287Z,98624.50
2022-11-12T13:25:36.320Z,98623.13
2022-11-12T13:28:22.902Z,98623.72
2022-11-12T13:31:26.868Z,98632.75
2022-11-12T13:34:22.138Z,98635.75
2022-11-12T13:37:20.856Z,98630.25
2022-11-12T13:40:14.607Z,98625.00
2022-11-12T13:43:08.366Z,98636.13
2022-11-12T13:45:58.175Z,98629.06
2022-11-12T13:48:48.248Z,98623.50
2022-11-12T13:51:55.877Z,98622.84
2022-11-12T13:54:43.380Z,98630.47
2022-11-12T13:57:32.565Z,98621.69
2022-11-12T14:00:26.113Z,98615.69
2022-11-12T14:03:18.577Z,98619.50
2022-11-12T14:06:09.096Z,98620.66
2022-11-12T14:09:21.456Z,98607.47
2022-11-12T14:12:24.535Z,98606.44
2022-11-12T14:15:26.423Z,98624.66
2022-11-12T14:18:18.520Z,98612.16
2022-11-12T14:21:12.295Z,98606.84
2022-11-12T14:24:03.934Z,98602.72
2022-11-12T14:26:51.056Z,98601.00
2022-11-12T14:29:42.492Z,98605.94
2022-11-12T14:32:36.824Z,98611.19
2022-11-12T14:35:30.098Z,98607.38
2022-11-12T14:38:20.115Z,98597.06
2022-11-12T14:41:12.485Z,98603.28
2022-11-12T14:44:12.817Z,98611.03
2022-11-12T14:47:03.455Z,98601.91
2022-11-12T14:49:51.192Z,98605.81
2022-11-12T14:52:42.521Z,98597.88
2022-11-12T14:55:33.428Z,98598.59
2022-11-12T14:58:24.171Z,98601.94
2022-11-12T15:04:39.951Z,98608.09
2022-11-12T15:07:28.955Z,98601.75
2022-11-12T15:10:37.317Z,98600.63
2022-11-12T15:13:28.424Z,98599.47
2022-11-12T15:16:22.481Z,98601.38
2022-11-12T15:19:21.400Z,98592.97
2022-11-12T15:22:21.145Z,98605.19
2022-11-12T15:25:13.559Z,98603.66
2022-11-12T15:28:14.384Z,98608.84
2022-11-12T15:31:04.026Z,98613.22
2022-11-12T15:33:51.016Z,98602.47
2022-11-12T15:36:42.272Z,98602.09
2022-11-12T15:39:30.694Z,98595.41
2022-11-12T15:42:19.169Z,98599.00
2022-11-12T15:45:15.091Z,98597.47
2022-11-12T15:48:04.333Z,98595.03
2022-11-12T15:50:51.130Z,98597.78
2022-11-12T15:53:38.003Z,98594.50
2022-11-12T15:56:25.993Z,98587.03
2022-11-12T15:59:16.975Z,98592.34
2022-11-12T16:02:03.877Z,98599.53
2022-11-12T16:04:52.204Z,98590.75
2022-11-12T16:07:39.372Z,98589.94
2022-11-12T16:10:26.934Z,98595.22
2022-11-12T16:13:20.293Z,98599.63
2022-11-12T16:16:08.448Z,98607.19
2022-11-12T16:18:55.564Z,98599.69
2022-11-12T16:21:43.959Z,98596.16
2022-11-12T16:24:31.024Z,98602.28
2022-11-12T16:27:18.183Z,98604.19
2022-11-12T16:30:14.573Z,98611.19
2022-11-12T16:33:02.192Z,98603.41
2022-11-12T16:35:48.694Z,98595.84
2022-11-12T16:38:36.586Z,98600.16
2022-11-12T16:41:23.249Z,98591.47
2022-11-12T16:44:09.668Z,98599.41
2022-11-12T16:46:56.454Z,98595.88
2022-11-12T16:49:43.407Z,98598.47
2022-11-12T16:52:30.235Z,98593.31
2022-11-12T16:55:18.497Z,98594.31
2022-11-12T16:58:05.205Z,98590.94
2022-11-12T17:00:52.703Z,98589.16
2022-11-12T17:03:39.932Z,98584.94
2022-11-12T17:06:34.293Z,98581.50
2022-11-12T17:09:21.166Z,98592.69
2022-11-12T17:12:09.825Z,98585.81
2022-11-12T17:14:56.661Z,98588.44
2022-11-12T17:17:43.342Z,98584.94
2022-11-12T17:20:30.770Z,98581.50
2022-11-12T17:23:17.170Z,98579.72
2022-11-12T17:26:05.333Z,98579.69
2022-11-12T17:29:02.258Z,98581.41
2022-11-12T17:31:50.760Z,98572.84
2022-11-12T17:34:37.377Z,98565.09
2022-11-12T17:37:24.230Z,98566.78
2022-11-12T17:40:11.865Z,98554.69
2022-11-12T17:42:58.243Z,98559.94
2022-11-12T17:45:51.562Z,98559.06
2022-11-12T17:48:39.153Z,98559.91
2022-11-12T17:51:28.463Z,98560.78
2022-11-12T17:54:15.981Z,98556.50
2022-11-12T17:57:02.901Z,98562.56
2022-11-12T17:59:49.637Z,98566.00
2022-11-12T18:02:37.385Z,98558.28
2022-11-12T18:05:24.070Z,98557.41
2022-11-12T18:08:10.875Z,98561.72
2022-11-12T18:10:58.145Z,98560.00
2022-11-12T18:13:44.755Z,98558.31
2022-11-12T18:16:32.056Z,98561.78
2022-11-12T18:19:20.324Z,98554.91
2022-11-12T18:22:07.309Z,98544.59
2022-11-12T18:24:54.375Z,98553.13
2022-11-12T18:27:41.739Z,98554.88
2022-11-12T18:30:28.450Z,98559.16
2022-11-12T18:33:15.488Z,98554.06
2022-11-12T18:36:04.678Z,98554.91
2022-11-12T18:38:52.648Z,98554.91
2022-11-12T18:41:39.719Z,98557.50
2022-11-12T18:44:27.274Z,98554.09
2022-11-12T18:47:13.718Z,98565.31
2022-11-12T18:50:05.487Z,98556.59
2022-11-12T18:52:56.562Z,98560.09
2022-11-12T18:55:43.872Z,98553.19
2022-11-12T18:58:35.100Z,98552.31
2022-11-12T19:01:25.031Z,98565.34
2022-11-12T19:04:13.316Z,98557.56
2022-11-12T19:07:00.671Z,98556.69
2022-11-12T19:09:48.754Z,98551.47
2022-11-12T19:12:35.408Z,98547.16
2022-11-12T19:15:26.575Z,98556.66
2022-11-12T19:18:16.439Z,98550.63
2022-11-12T19:21:04.602Z,98553.25
2022-11-12T19:23:54.768Z,98560.16
2022-11-12T19:26:42.959Z,98561.88
2022-11-12T19:29:31.969Z,98552.38
2022-11-12T19:32:18.664Z,98551.50
2022-11-12T19:35:07.573Z,98542.91
2022-11-12T19:37:54.389Z,98541.16
2022-11-12T19:40:42.380Z,98542.03
2022-11-12T19:43:31.112Z,98540.28
2022-11-12T19:46:18.226Z,98532.53
2022-11-12T19:49:04.702Z,98542.03
2022-11-12T19:51:51.962Z,98536.00
2022-11-12T19:54:38.942Z,98534.28
2022-11-12T19:57:27.182Z,98536.88
2022-11-12T20:00:17.054Z,98526.53
2022-11-12T20:03:04.908Z,98523.94
2022-11-12T20:05:52.855Z,98520.47
2022-11-12T20:08:40.461Z,98524.78
2022-11-12T20:11:27.413Z,98526.50
2022-11-12T20:14:14.269Z,98536.00
2022-11-12T20:17:02.472Z,98532.53
2022-11-12T20:19:49.374Z,98533.41
2022-11-12T20:22:36.682Z,98540.34
2022-11-12T20:25:24.299Z,98536.00
2022-11-12T20:28:11.835Z,98548.06
2022-11-12T20:31:06.918Z,98545.50
2022-11-12T20:33:56.723Z,98542.91
2022-11-12T20:36:44.093Z,98549.78
2022-11-12T20:39:32.533Z,98545.47
2022-11-12T20:42:19.378Z,98552.34
2022-11-12T20:45:07.187Z,98553.22
2022-11-12T20:47:56.070Z,98536.88
2022-11-12T20:50:56.560Z,98530.81
2022-11-12T20:53:51.566Z,98545.47
2022-11-12T20:56:42.101Z,98550.59
2022-11-12T20:59:29.235Z,98546.28
2022-11-12T21:02:15.976Z,98536.75
2022-11-12T21:05:03.288Z,98531.53
2022-11-12T21:07:51.330Z,98537.41
2022-11-12T21:10:38.816Z,98528.69
2022-11-12T21:13:25.683Z,98533.88
2022-11-12T21:16:14.797Z,98527.00
2022-11-12T21:19:02.557Z,98532.13
2022-11-12T21:21:49.939Z,98521.06
2022-11-12T21:24:37.939Z,98527.09
2022-11-12T21:27:24.692Z,98517.63
2022-11-12T21:30:12.336Z,98515.91
2022-11-12T21:32:59.825Z,98512.34
2022-11-12T21:35:53.175Z,98511.50
2022-11-12T21:38:39.940Z,98514.03
2022-11-12T21:41:32.087Z,98513.22
2022-11-12T21:44:19.044Z,98516.78
2022-11-12T21:47:06.331Z,98502.16
2022-11-12T21:49:53.008Z,98497.81
2022-11-12T21:52:39.498Z,98495.19
2022-11-12T21:55:26.783Z,98497.00
2022-11-12T21:58:16.593Z,98485.84
2022-11-12T22:01:11.095Z,98476.31
2022-11-12T22:04:01.895Z,98480.50
2022-11-12T22:06:48.816Z,98480.47
2022-11-12T22:09:35.302Z,98482.22
2022-11-12T22:12:21.964Z,98485.63
2022-11-12T22:15:10.631Z,98476.16
2022-11-12T22:17:59.370Z,98470.97
2022-11-12T22:20:56.130Z,98476.13
2022-11-12T22:23:43.018Z,98470.13
2022-11-12T22:26:30.091Z,98463.25
2022-11-12T22:29:17.067Z,98459.00
2022-11-12T22:32:06.073Z,98466.78
2022-11-12T22:34:52.632Z,98462.47
2022-11-12T22:37:39.482Z,98463.41
2022-11-12T22:40:26.514Z,98460.91
2022-11-12T22:43:13.208Z,98457.44
2022-11-12T22:46:06.701Z,98455.66
2022-11-12T22:48:56.052Z,98453.13
2022-11-12T22:51:42.847Z,98456.56
2022-11-12T22:54:29.415Z,98460.84
2022-11-12T22:57:16.310Z,98465.81
2022-11-12T23:00:03.405Z,98458.00
2022-11-12T23:06:08.976Z,98440.78
2022-11-12T23:08:57.707Z,98437.34
2022-11-12T23:11:44.572Z,98431.41
2022-11-12T23:14:32.471Z,98436.56
2022-11-12T23:17:19.064Z,98437.25
2022-11-12T23:20:06.446Z,98440.69
2022-11-12T23:22:54.823Z,98456.03
2022-11-12T23:25:41.840Z,98450.06
2022-11-12T23:28:29.169Z,98448.34
2022-11-12T23:31:18.851Z,98447.56
2022-11-12T23:34:05.734Z,98446.75
2022-11-12T23:36:52.730Z,98438.16
2022-11-12T23:39:40.915Z,98440.56
2022-11-12T23:42:29.158Z,98445.56
2022-11-12T23:45:15.913Z,98438.69
2022-11-12T23:48:02.814Z,98435.19
2022-11-12T23:50:51.032Z,98437.91
2022-11-12T23:53:39.159Z,98432.00
2022-11-12T23:56:27.409Z,98426.75
2022-11-12T23:59:14.804Z,98431.16
